Time;durP1;ratioP1;P1;durP2;ratioP2;P2;SDS_P1;SDS_P2;PMS_P1;PMS_P2;Temp;Humidity;BMP_temperature;BMP_pressure;BME280_temperature;BME280_humidity;BME280_pressure;Samples;Min_cycle;Max_cycle;Signal;HPM_P1;HPM_P2
2022/07/24 00:01:59;;;;;;;10.88;5.93;;;24.50;86.50;;;;;;5072854;28;20098;-88
2022/07/24 00:04:25;;;;;;;9.10;5.90;;;24.40;86.50;;;;;;5055549;28;20031;-87
2022/07/24 00:06:51;;;;;;;7.85;5.97;;;24.40;86.70;;;;;;5073956;28;20442;-87
2022/07/24 00:09:17;;;;;;;8.02;5.40;;;24.40;86.80;;;;;;5073884;28;20103;-88
2022/07/24 00:11:43;;;;;;;10.77;6.60;;;24.40;86.20;;;;;;5056147;28;20058;-88
2022/07/24 00:14:09;;;;;;;7.53;5.65;;;24.40;86.30;;;;;;5055606;28;20029;-88
2022/07/24 00:16:34;;;;;;;7.47;5.85;;;24.40;85.60;;;;;;5055788;28;20401;-88
2022/07/24 00:19:00;;;;;;;9.55;5.38;;;24.30;85.20;;;;;;5073390;28;20052;-88
2022/07/24 00:21:25;;;;;;;9.18;5.55;;;24.40;85.20;;;;;;5055830;28;20120;-88
2022/07/24 00:23:51;;;;;;;7.18;5.80;;;24.20;85.60;;;;;;5058288;28;20111;-87
2022/07/24 00:26:17;;;;;;;7.20;4.95;;;24.20;85.80;;;;;;5058850;28;20197;-88
2022/07/24 00:28:42;;;;;;;8.65;5.22;;;24.10;85.80;;;;;;5059945;28;20051;-87
2022/07/24 00:31:09;;;;;;;6.45;4.65;;;24.10;85.60;;;;;;5076808;28;20040;-88
2022/07/24 00:33:35;;;;;;;11.98;5.35;;;24.10;85.30;;;;;;5077091;28;20070;-88
2022/07/24 00:36:01;;;;;;;7.35;5.20;;;24.00;85.30;;;;;;5058767;28;20055;-88
2022/07/24 00:38:26;;;;;;;8.95;4.53;;;24.00;85.20;;;;;;5076990;28;20354;-88
2022/07/24 00:40:52;;;;;;;6.15;4.60;;;24.00;84.80;;;;;;5076685;28;20103;-88
2022/07/24 00:43:19;;;;;;;8.27;5.00;;;24.00;84.60;;;;;;5058458;28;20336;-87
2022/07/24 00:45:45;;;;;;;5.97;4.38;;;24.00;84.40;;;;;;5076723;28;20022;-87
2022/07/24 00:48:11;;;;;;;5.50;4.65;;;23.90;84.30;;;;;;5076380;28;20016;-88
2022/07/24 00:50:37;;;;;;;7.38;4.95;;;23.90;84.60;;;;;;5058748;28;20487;-87
2022/07/24 00:53:03;;;;;;;5.22;4.63;;;23.90;84.70;;;;;;5057938;28;20036;-88
2022/07/24 00:55:29;;;;;;;8.50;4.85;;;23.80;84.80;;;;;;5058721;28;20032;-88
2022/07/24 00:57:55;;;;;;;6.68;4.78;;;23.80;84.30;;;;;;5058713;28;20024;-86
2022/07/24 01:00:22;;;;;;;5.93;4.38;;;23.80;84.00;;;;;;5058420;28;20055;-87
2022/07/24 01:02:49;;;;;;;7.93;4.80;;;23.80;85.00;;;;;;5076324;28;20040;-87
2022/07/24 01:05:15;;;;;;;8.57;4.65;;;23.70;85.50;;;;;;5058214;28;20021;-87
2022/07/24 01:07:41;;;;;;;7.55;4.55;;;23.60;85.50;;;;;;5076713;28;20020;-87
2022/07/24 01:10:07;;;;;;;6.63;5.38;;;23.60;85.00;;;;;;5058277;28;20415;-88
2022/07/24 01:12:34;;;;;;;6.88;4.90;;;23.60;85.40;;;;;;5058604;28;20029;-88
2022/07/24 01:15:00;;;;;;;8.52;5.03;;;23.60;85.30;;;;;;5058403;28;20453;-88
2022/07/24 01:17:31;;;;;;;5.50;4.45;;;23.60;85.70;;;;;;5076262;28;20031;-88
2022/07/24 01:19:57;;;;;;;8.10;5.25;;;23.50;86.20;;;;;;5058464;28;20044;-88
2022/07/24 01:22:23;;;;;;;6.50;5.00;;;23.50;86.80;;;;;;5057712;28;20020;-87
2022/07/24 01:24:48;;;;;;;6.57;5.15;;;23.50;87.60;;;;;;5058331;28;20070;-88
2022/07/24 01:27:14;;;;;;;9.15;5.88;;;23.40;88.10;;;;;;5075067;28;20048;-88
2022/07/24 01:29:40;;;;;;;7.43;5.18;;;23.40;88.20;;;;;;5058602;28;20039;-88
2022/07/24 01:32:06;;;;;;;8.80;5.10;;;23.40;88.40;;;;;;5057738;28;20021;-88
2022/07/24 01:34:32;;;;;;;10.05;4.88;;;23.50;88.30;;;;;;5075447;28;20032;-88
2022/07/24 01:36:57;;;;;;;7.82;5.15;;;23.50;88.10;;;;;;5058274;28;20021;-87
2022/07/24 01:39:23;;;;;;;6.20;4.63;;;23.40;87.80;;;;;;5075749;28;20048;-88
2022/07/24 01:41:49;;;;;;;6.32;4.72;;;23.40;88.10;;;;;;5058147;28;20066;-88
2022/07/24 01:44:14;;;;;;;10.02;4.95;;;23.40;88.30;;;;;;5058037;28;20023;-88
2022/07/24 01:46:40;;;;;;;7.10;5.22;;;23.40;88.70;;;;;;5075667;28;20025;-88
2022/07/24 01:49:06;;;;;;;6.80;5.30;;;23.30;89.80;;;;;;5075200;28;20031;-88
2022/07/24 01:51:31;;;;;;;7.53;4.93;;;23.30;89.30;;;;;;5057756;28;20024;-88
2022/07/24 01:53:57;;;;;;;11.45;5.68;;;23.30;89.40;;;;;;5057977;28;20017;-88
2022/07/24 01:56:23;;;;;;;8.65;5.13;;;23.30;89.50;;;;;;5057123;28;20433;-88
2022/07/24 01:58:48;;;;;;;5.70;4.97;;;23.30;89.60;;;;;;5057614;28;20043;-88
2022/07/24 02:01:14;;;;;;;8.02;5.13;;;23.20;89.90;;;;;;5057268;28;20017;-88
2022/07/24 02:03:39;;;;;;;8.40;5.13;;;23.20;90.00;;;;;;5075644;28;20017;-88
2022/07/24 02:06:05;;;;;;;8.07;4.78;;;23.10;90.10;;;;;;5074758;28;20020;-88
2022/07/24 02:08:31;;;;;;;7.25;5.05;;;23.10;90.10;;;;;;5057860;28;20040;-87
2022/07/24 02:10:57;;;;;;;6.25;4.88;;;22.90;89.80;;;;;;5057745;28;20024;-88
2022/07/24 02:13:22;;;;;;;5.55;4.40;;;22.90;89.50;;;;;;5057192;28;20111;-87
2022/07/24 02:15:48;;;;;;;6.45;4.18;;;22.90;88.70;;;;;;5075088;28;20020;-88
2022/07/24 02:18:13;;;;;;;7.75;4.18;;;22.90;88.40;;;;;;5057140;28;20031;-88
2022/07/24 02:20:39;;;;;;;5.82;4.15;;;22.80;88.50;;;;;;5057080;28;20020;-88
2022/07/24 02:23:04;;;;;;;6.45;4.40;;;22.90;88.80;;;;;;5056820;28;20108;-89
2022/07/24 02:25:30;;;;;;;7.70;4.43;;;22.90;88.60;;;;;;5057136;28;20141;-87
2022/07/24 02:27:56;;;;;;;5.78;4.40;;;22.80;88.00;;;;;;5057376;28;20044;-87
2022/07/24 02:30:23;;;;;;;6.72;4.30;;;22.70;88.10;;;;;;5056720;28;20456;-87
2022/07/24 02:32:49;;;;;;;7.50;4.00;;;22.70;88.40;;;;;;5057176;28;20024;-87
2022/07/24 02:35:15;;;;;;;6.22;4.43;;;22.60;88.70;;;;;;5056271;28;20027;-87
2022/07/24 02:37:43;;;;;;;6.63;3.88;;;22.60;88.90;;;;;;5057208;28;20038;-87
2022/07/24 02:40:11;;;;;;;8.40;4.03;;;22.60;88.90;;;;;;5074074;28;20032;-87
2022/07/24 02:42:38;;;;;;;6.75;4.00;;;22.60;89.10;;;;;;5057053;28;20483;-87
2022/07/24 02:45:05;;;;;;;8.32;4.07;;;22.50;89.20;;;;;;5056822;28;20025;-87
2022/07/24 02:47:31;;;;;;;5.60;4.40;;;22.40;89.50;;;;;;5074305;28;20024;-87
2022/07/24 02:49:57;;;;;;;6.55;4.50;;;22.40;90.00;;;;;;5056818;28;20023;-87
2022/07/24 02:52:22;;;;;;;6.90;4.25;;;22.20;90.30;;;;;;5056463;28;20024;-87
2022/07/24 02:54:48;;;;;;;8.15;4.47;;;22.20;90.60;;;;;;5056741;28;20477;-87
2022/07/24 02:57:14;;;;;;;6.78;4.70;;;22.10;91.00;;;;;;5056181;28;20068;-88
2022/07/24 02:59:39;;;;;;;7.63;4.90;;;22.00;91.30;;;;;;5074252;28;20465;-87
2022/07/24 03:02:05;;;;;;;5.80;4.90;;;22.00;91.50;;;;;;5056617;28;20461;-87
2022/07/24 03:04:31;;;;;;;6.32;4.90;;;21.80;91.80;;;;;;5056315;28;20020;-87
2022/07/24 03:06:57;;;;;;;6.93;5.35;;;21.80;92.30;;;;;;5056485;28;20027;-87
2022/07/24 03:09:23;;;;;;;8.05;5.38;;;21.70;93.00;;;;;;5056095;28;20033;-87
2022/07/24 03:11:48;;;;;;;7.68;5.32;;;21.70;92.90;;;;;;5056257;28;20029;-85
2022/07/24 03:14:14;;;;;;;10.80;5.30;;;21.60;93.10;;;;;;5055851;28;20020;-87
2022/07/24 03:16:39;;;;;;;7.82;5.30;;;21.60;93.30;;;;;;5056049;28;20478;-87
2022/07/24 03:19:05;;;;;;;7.55;5.32;;;21.60;93.40;;;;;;5056384;28;20055;-87
2022/07/24 03:21:31;;;;;;;9.38;4.75;;;21.60;93.40;;;;;;5073517;28;20518;-86
2022/07/24 03:23:56;;;;;;;9.05;5.43;;;21.70;93.30;;;;;;5056540;28;20469;-87
2022/07/24 03:26:22;;;;;;;8.45;5.10;;;21.70;93.30;;;;;;5055736;28;20209;-87
2022/07/24 03:28:47;;;;;;;8.65;5.35;;;21.60;93.50;;;;;;5056100;28;20077;-86
2022/07/24 03:31:13;;;;;;;10.60;5.65;;;21.70;93.70;;;;;;5055955;28;20033;-87
2022/07/24 03:33:39;;;;;;;7.55;5.47;;;21.60;93.90;;;;;;5056598;28;20121;-87
2022/07/24 03:36:05;;;;;;;7.28;5.50;;;21.50;93.90;;;;;;5073690;28;20635;-86
2022/07/24 03:38:30;;;;;;;7.43;5.57;;;21.50;94.10;;;;;;5055860;28;20036;-87
2022/07/24 03:40:56;;;;;;;8.65;5.60;;;21.40;94.30;;;;;;5074005;28;20028;-87
2022/07/24 03:43:21;;;;;;;8.43;5.68;;;21.40;94.60;;;;;;5073597;28;20029;-86
2022/07/24 03:45:47;;;;;;;7.38;5.88;;;21.40;94.70;;;;;;5056702;28;20111;-86
2022/07/24 03:48:13;;;;;;;8.32;5.72;;;21.40;94.80;;;;;;5055822;28;20028;-87
2022/07/24 03:50:38;;;;;;;8.43;5.18;;;21.30;94.80;;;;;;5056011;28;20025;-86
2022/07/24 03:53:04;;;;;;;9.95;5.15;;;21.30;94.70;;;;;;5056164;28;20082;-86
2022/07/24 03:55:29;;;;;;;8.13;5.07;;;21.30;94.60;;;;;;5055699;28;20118;-86
2022/07/24 03:57:55;;;;;;;7.78;4.90;;;21.30;94.70;;;;;;5075815;28;20036;-86
2022/07/24 04:00:20;;;;;;;8.65;5.65;;;21.20;95.00;;;;;;5059463;28;20024;-87
2022/07/24 04:02:46;;;;;;;9.75;5.35;;;21.20;95.00;;;;;;5059851;28;20021;-87
2022/07/24 04:05:13;;;;;;;6.78;4.30;;;21.10;94.70;;;;;;5059607;28;20031;-87
2022/07/24 04:07:39;;;;;;;7.18;4.78;;;21.10;94.70;;;;;;5077161;28;20065;-87
2022/07/24 04:10:06;;;;;;;8.85;4.95;;;21.20;94.50;;;;;;5059605;28;20111;-85
2022/07/24 04:12:32;;;;;;;7.43;4.78;;;21.10;94.60;;;;;;5059243;28;20039;-87
2022/07/24 04:14:57;;;;;;;6.97;4.75;;;21.10;94.60;;;;;;5077185;28;20035;-87
2022/07/24 04:17:23;;;;;;;6.10;4.80;;;21.20;94.60;;;;;;5076804;28;20032;-88
2022/07/24 04:19:48;;;;;;;5.90;4.40;;;21.20;94.40;;;;;;5059621;28;20086;-87
2022/07/24 04:22:14;;;;;;;11.02;4.32;;;21.20;94.40;;;;;;5059307;28;20027;-88
2022/07/24 04:24:40;;;;;;;6.95;5.03;;;21.30;94.50;;;;;;5077558;28;20028;-87
2022/07/24 04:27:05;;;;;;;9.20;4.60;;;21.20;94.80;;;;;;5059314;28;20496;-87
2022/07/24 04:29:31;;;;;;;7.50;4.43;;;21.20;94.80;;;;;;5076621;28;20075;-87
2022/07/24 04:31:56;;;;;;;9.43;4.80;;;21.20;94.90;;;;;;5059425;28;20492;-87
2022/07/24 04:34:22;;;;;;;8.57;5.13;;;21.20;94.70;;;;;;5058807;28;20078;-87
2022/07/24 04:36:48;;;;;;;8.93;5.70;;;21.20;95.40;;;;;;5076785;28;20044;-86
2022/07/24 04:39:13;;;;;;;8.38;5.68;;;21.00;96.10;;;;;;5076796;28;20071;-87
2022/07/24 04:41:40;;;;;;;9.23;5.47;;;20.90;96.70;;;;;;5059118;28;20031;-87
2022/07/24 04:44:05;;;;;;;7.78;6.05;;;20.90;96.90;;;;;;5077172;28;20024;-86
2022/07/24 04:46:31;;;;;;;8.57;5.18;;;20.90;96.80;;;;;;5076450;28;20525;-87
2022/07/24 04:48:57;;;;;;;7.68;5.43;;;20.90;96.80;;;;;;5059320;28;20028;-87
2022/07/24 04:51:22;;;;;;;8.13;5.38;;;21.00;96.80;;;;;;5057903;28;20381;-87
2022/07/24 04:53:52;;;;;;;9.80;5.53;;;21.00;96.90;;;;;;5058734;28;20105;-86
2022/07/24 04:56:21;;;;;;;7.55;5.63;;;21.00;97.00;;;;;;5058153;28;20024;-87
2022/07/24 04:58:47;;;;;;;6.50;5.20;;;21.00;96.60;;;;;;5076667;28;20029;-86
2022/07/24 05:01:13;;;;;;;7.63;5.65;;;21.10;96.30;;;;;;5059038;28;20029;-87
2022/07/24 05:03:38;;;;;;;6.35;5.30;;;21.10;96.40;;;;;;5058677;28;20123;-87
2022/07/24 05:06:04;;;;;;;7.47;5.05;;;21.00;96.60;;;;;;5076570;28;20523;-86
2022/07/24 05:08:30;;;;;;;8.77;5.20;;;21.10;96.40;;;;;;5075278;28;20531;-87
2022/07/24 05:10:55;;;;;;;9.20;4.93;;;21.20;96.10;;;;;;5058498;28;20033;-86
2022/07/24 05:13:21;;;;;;;7.38;4.65;;;21.20;96.30;;;;;;5058118;28;20478;-87
2022/07/24 05:15:46;;;;;;;5.60;4.13;;;21.20;96.00;;;;;;5076137;28;20458;-86
2022/07/24 05:18:12;;;;;;;5.00;4.47;;;21.30;95.20;;;;;;5058397;28;20028;-86
2022/07/24 05:20:38;;;;;;;5.88;4.20;;;21.30;94.70;;;;;;5057998;28;20029;-87
2022/07/24 05:23:03;;;;;;;7.18;4.07;;;21.30;94.50;;;;;;5076006;28;20029;-87
2022/07/24 05:25:29;;;;;;;7.30;4.60;;;21.40;94.30;;;;;;5057949;28;20033;-87
2022/07/24 05:27:55;;;;;;;10.07;4.47;;;21.40;94.40;;;;;;5057863;28;20510;-86
2022/07/24 05:30:20;;;;;;;6.22;3.80;;;21.50;94.50;;;;;;5075590;28;20025;-87
2022/07/24 05:32:46;;;;;;;5.88;4.28;;;21.50;94.50;;;;;;5058187;28;20069;-86
2022/07/24 05:35:12;;;;;;;6.60;3.90;;;21.50;94.30;;;;;;5058433;28;20101;-86
2022/07/24 05:37:37;;;;;;;8.90;4.80;;;21.50;93.80;;;;;;5057785;28;20028;-87
2022/07/24 05:40:04;;;;;;;7.45;4.18;;;21.40;93.50;;;;;;5058384;28;20392;-86
2022/07/24 05:42:30;;;;;;;6.78;4.43;;;21.50;93.50;;;;;;5057828;28;20059;-87
2022/07/24 05:44:56;;;;;;;8.65;4.57;;;21.40;93.40;;;;;;5075258;28;20032;-86
2022/07/24 05:47:21;;;;;;;7.93;4.80;;;21.50;93.30;;;;;;5057332;28;20034;-87
2022/07/24 05:49:47;;;;;;;9.75;6.88;;;21.50;93.10;;;;;;5075583;28;20017;-87
2022/07/24 05:52:13;;;;;;;7.28;5.75;;;21.60;93.20;;;;;;5057842;28;20457;-86
2022/07/24 05:54:38;;;;;;;6.45;4.30;;;21.50;93.20;;;;;;5057243;28;20017;-87
2022/07/24 05:57:04;;;;;;;8.70;4.28;;;21.50;93.10;;;;;;5075809;28;20028;-87
2022/07/24 05:59:29;;;;;;;6.10;4.63;;;21.60;93.10;;;;;;5057180;28;20063;-87
2022/07/24 06:01:55;;;;;;;5.97;4.35;;;21.60;93.00;;;;;;5058014;28;20032;-87
2022/07/24 06:04:21;;;;;;;5.80;4.18;;;21.70;92.80;;;;;;5057551;28;20031;-88
2022/07/24 06:06:47;;;;;;;8.05;5.03;;;21.70;92.70;;;;;;5075546;28;20062;-87
2022/07/24 06:09:12;;;;;;;6.88;4.57;;;21.80;92.80;;;;;;5075068;28;20033;-87
2022/07/24 06:11:38;;;;;;;8.45;5.13;;;21.80;92.90;;;;;;5057100;28;20477;-87
2022/07/24 06:14:04;;;;;;;8.77;4.20;;;21.80;92.90;;;;;;5075233;28;20028;-88
2022/07/24 06:16:30;;;;;;;8.95;4.60;;;21.80;93.00;;;;;;5057496;28;20096;-87
2022/07/24 06:18:56;;;;;;;8.63;4.93;;;22.00;93.30;;;;;;5075157;28;20056;-87
2022/07/24 06:21:21;;;;;;;6.13;4.47;;;22.00;93.00;;;;;;5056515;28;20067;-88
2022/07/24 06:23:47;;;;;;;6.35;4.65;;;22.00;93.00;;;;;;5075041;28;20063;-88
2022/07/24 06:26:12;;;;;;;7.25;4.38;;;22.10;92.80;;;;;;5074883;28;20479;-87
2022/07/24 06:28:38;;;;;;;9.05;4.63;;;22.00;92.80;;;;;;5074277;28;20114;-88
2022/07/24 06:31:04;;;;;;;7.28;4.60;;;22.10;92.90;;;;;;5075057;28;20080;-88
2022/07/24 06:33:29;;;;;;;6.60;4.38;;;22.10;92.80;;;;;;5056585;28;20465;-88
2022/07/24 06:35:55;;;;;;;7.47;4.22;;;22.20;92.90;;;;;;5056762;28;20040;-88
2022/07/24 06:38:20;;;;;;;6.80;4.32;;;22.20;92.80;;;;;;5056888;28;20444;-85
2022/07/24 06:40:46;;;;;;;6.38;4.35;;;22.20;92.90;;;;;;5055756;28;20138;-87
2022/07/24 06:43:12;;;;;;;5.40;4.25;;;22.30;92.80;;;;;;5056719;28;20024;-87
2022/07/24 06:45:37;;;;;;;6.70;4.55;;;22.30;92.50;;;;;;5056807;28;20032;-86
2022/07/24 06:48:03;;;;;;;6.65;4.60;;;22.30;92.60;;;;;;5056734;28;20063;-86
2022/07/24 06:50:29;;;;;;;6.78;4.63;;;22.30;92.70;;;;;;5055972;28;20028;-87
2022/07/24 06:52:55;;;;;;;7.00;5.30;;;22.40;93.00;;;;;;5073980;28;20025;-86
2022/07/24 06:55:21;;;;;;;7.93;5.85;;;22.40;92.90;;;;;;5056200;28;20489;-88
2022/07/24 06:57:47;;;;;;;7.30;5.65;;;22.40;92.50;;;;;;5056417;28;20033;-87
2022/07/24 07:00:13;;;;;;;6.93;4.53;;;22.50;92.20;;;;;;5074497;28;20029;-88
2022/07/24 07:02:39;;;;;;;10.55;4.78;;;22.60;92.00;;;;;;5073779;28;20521;-87
2022/07/24 07:05:06;;;;;;;7.93;4.78;;;22.50;91.70;;;;;;5057021;28;20028;-88
2022/07/24 07:07:32;;;;;;;11.48;5.38;;;22.60;91.50;;;;;;5056031;28;20032;-89
2022/07/24 07:09:57;;;;;;;7.43;4.60;;;22.70;91.60;;;;;;5056292;28;20031;-88
2022/07/24 07:12:23;;;;;;;6.35;4.47;;;22.70;91.50;;;;;;5056323;28;20450;-89
2022/07/24 07:14:49;;;;;;;6.65;4.35;;;22.70;91.40;;;;;;5055935;28;20028;-86
2022/07/24 07:17:17;;;;;;;6.75;4.88;;;22.80;91.40;;;;;;5056215;28;20039;-85
2022/07/24 07:19:43;;;;;;;8.20;4.80;;;22.80;91.30;;;;;;5055713;28;20024;-86
2022/07/24 07:22:10;;;;;;;8.60;4.50;;;22.90;91.10;;;;;;5074085;28;20036;-86
2022/07/24 07:24:35;;;;;;;8.35;4.57;;;23.00;91.20;;;;;;5056161;28;20051;-86
2022/07/24 07:27:01;;;;;;;6.75;4.45;;;23.00;90.90;;;;;;5052344;28;20474;-88
2022/07/24 07:29:27;;;;;;;8.35;4.82;;;23.00;90.80;;;;;;5050920;28;20103;-88
2022/07/24 07:31:52;;;;;;;7.20;4.90;;;23.00;90.70;;;;;;5053428;28;20021;-87
2022/07/24 07:34:18;;;;;;;11.25;4.40;;;23.00;90.70;;;;;;5057072;28;20485;-87
2022/07/24 07:36:43;;;;;;;7.70;4.82;;;23.00;90.50;;;;;;5057889;28;20036;-87
2022/07/24 07:39:09;;;;;;;6.40;4.70;;;23.10;90.40;;;;;;5057099;28;20036;-87
2022/07/24 07:41:35;;;;;;;6.97;4.05;;;23.20;90.10;;;;;;5057395;28;20029;-87
2022/07/24 07:44:01;;;;;;;6.10;4.10;;;23.20;89.60;;;;;;5057885;28;20028;-87
2022/07/24 07:46:27;;;;;;;6.18;4.03;;;23.30;89.40;;;;;;5056734;28;20029;-88
2022/07/24 07:48:53;;;;;;;8.40;4.38;;;23.40;89.30;;;;;;5056625;28;20025;-87
2022/07/24 07:51:19;;;;;;;7.47;4.32;;;23.40;88.10;;;;;;5057704;28;20429;-88
2022/07/24 07:53:45;;;;;;;7.45;4.05;;;23.40;88.00;;;;;;5056176;28;20029;-87
2022/07/24 07:56:11;;;;;;;5.55;4.05;;;23.50;87.80;;;;;;5056832;28;20056;-87
2022/07/24 07:58:36;;;;;;;8.35;4.90;;;23.50;87.70;;;;;;5056251;28;20037;-87
2022/07/24 08:01:02;;;;;;;4.97;3.90;;;23.60;86.60;;;;;;5054109;28;20021;-87
2022/07/24 08:03:28;;;;;;;5.80;4.07;;;23.70;85.90;;;;;;5051983;28;20134;-87
2022/07/24 08:05:54;;;;;;;5.43;3.75;;;23.80;85.20;;;;;;5052423;28;20057;-87
2022/07/24 08:08:19;;;;;;;8.13;4.10;;;23.80;84.60;;;;;;5055944;28;20466;-87
2022/07/24 08:10:45;;;;;;;5.35;4.05;;;23.90;84.20;;;;;;5055662;28;20056;-87
2022/07/24 08:13:12;;;;;;;7.00;3.70;;;23.90;84.50;;;;;;5056123;28;20029;-87
2022/07/24 08:15:38;;;;;;;6.25;4.03;;;24.00;83.20;;;;;;5052166;28;20021;-87
2022/07/24 08:18:04;;;;;;;4.57;3.72;;;24.00;83.50;;;;;;5055837;28;20038;-87
2022/07/24 08:20:38;;;;;;;4.72;3.70;;;24.00;82.70;;;;;;5055672;28;20508;-87
2022/07/24 08:23:03;;;;;;;6.10;3.72;;;24.10;82.80;;;;;;5055837;28;20040;-86
2022/07/24 08:25:29;;;;;;;6.57;3.88;;;24.10;83.10;;;;;;5056582;28;20033;-88
2022/07/24 08:27:55;;;;;;;5.97;3.75;;;24.10;82.90;;;;;;5050338;28;20048;-88
2022/07/24 08:30:21;;;;;;;5.55;3.63;;;24.10;82.90;;;;;;5074889;28;20029;-87
2022/07/24 08:32:47;;;;;;;6.28;3.58;;;24.20;81.40;;;;;;5053868;28;20100;-86
2022/07/24 08:35:13;;;;;;;7.03;4.22;;;24.20;81.70;;;;;;5045246;28;20382;-85
2022/07/24 08:37:40;;;;;;;5.60;3.97;;;24.20;81.20;;;;;;5048494;28;20033;-87
2022/07/24 08:40:07;;;;;;;6.10;4.05;;;24.30;80.20;;;;;;5075768;28;20063;-87
2022/07/24 08:42:34;;;;;;;5.65;3.80;;;24.30;80.30;;;;;;5058499;28;20032;-87
2022/07/24 08:45:05;;;;;;;7.55;4.90;;;24.30;80.30;;;;;;5049190;28;20060;-87
2022/07/24 08:47:34;;;;;;;6.05;4.13;;;24.40;80.00;;;;;;5051001;28;20025;-88
2022/07/24 08:50:03;;;;;;;6.50;4.53;;;24.50;80.00;;;;;;5059199;28;20036;-88
2022/07/24 08:52:36;;;;;;;9.60;5.63;;;24.50;80.40;;;;;;5038434;28;20044;-88
2022/07/24 08:55:03;;;;;;;9.32;5.40;;;24.60;81.00;;;;;;5054029;28;20115;-88
2022/07/24 08:57:28;;;;;;;11.13;4.93;;;24.70;80.90;;;;;;5072208;28;20032;-87
2022/07/24 08:59:54;;;;;;;6.82;4.35;;;24.70;80.70;;;;;;5070411;28;20073;-88
2022/07/24 09:02:21;;;;;;;6.07;4.25;;;24.80;80.50;;;;;;5078756;28;20028;-88
2022/07/24 09:04:57;;;;;;;5.80;4.32;;;24.80;81.80;;;;;;5066553;28;20048;-88
2022/07/24 09:07:24;;;;;;;5.53;4.20;;;24.80;82.90;;;;;;5058412;28;20025;-88
2022/07/24 09:10:11;;;;;;;6.53;4.40;;;24.80;83.40;;;;;;5075172;28;20047;-88
2022/07/24 09:12:39;;;;;;;6.18;4.55;;;24.80;83.60;;;;;;5058020;28;20028;-88
2022/07/24 09:15:17;;;;;;;6.13;4.50;;;24.90;83.60;;;;;;5076415;28;20029;-89
2022/07/24 09:17:58;;;;;;;5.53;4.55;;;24.90;83.30;;;;;;5058032;28;20056;-88
2022/07/24 09:20:27;;;;;;;;;;;25.00;82.60;;;;;;5059104;28;20021;-88
2022/07/24 09:22:56;;;;;;;6.15;4.07;;;25.10;82.30;;;;;;5076006;28;20450;-88
2022/07/24 09:25:26;;;;;;;7.03;4.68;;;25.10;82.40;;;;;;5058731;28;20094;-89
2022/07/24 09:27:57;;;;;;;7.30;5.00;;;25.10;82.20;;;;;;5054667;28;20460;-88
2022/07/24 09:30:26;;;;;;;5.32;4.20;;;25.10;82.20;;;;;;5055042;28;20474;-89
2022/07/24 09:32:59;;;;;;;5.43;4.60;;;25.10;82.50;;;;;;5054493;28;20063;-88
2022/07/24 09:35:51;;;;;;;5.63;4.30;;;25.20;82.10;;;;;;5056424;28;20036;-88
2022/07/24 09:38:20;;;;;;;6.13;4.60;;;25.30;82.00;;;;;;5054803;28;20033;-88
2022/07/24 09:40:54;;;;;;;5.63;4.32;;;25.40;82.20;;;;;;5064663;28;20032;-89
2022/07/24 09:43:26;;;;;;;6.75;4.35;;;25.40;82.20;;;;;;5049313;28;20115;-89
2022/07/24 09:46:09;;;;;;;5.60;4.53;;;25.50;82.00;;;;;;5058265;28;20039;-89
2022/07/24 09:48:56;;;;;;;7.53;4.10;;;25.50;81.40;;;;;;5061634;28;20032;-89
2022/07/24 09:51:21;;;;;;;5.82;4.38;;;25.60;81.70;;;;;;5063248;28;20461;-88
2022/07/24 09:54:01;;;;;;;5.25;4.40;;;25.60;81.50;;;;;;5076544;28;20025;-89
2022/07/24 09:56:35;;;;;;;6.13;4.47;;;25.60;81.50;;;;;;5094906;28;20074;-89
2022/07/24 09:59:36;;;;;;;8.07;4.40;;;25.70;80.80;;;;;;5076770;28;20028;-89
2022/07/24 10:02:04;;;;;;;7.07;4.90;;;25.70;80.90;;;;;;5074735;28;20408;-88
2022/07/24 10:04:34;;;;;;;6.30;4.38;;;25.80;81.30;;;;;;5053103;28;20064;-88
2022/07/24 10:07:02;;;;;;;7.28;4.88;;;25.80;81.00;;;;;;5067604;28;20532;-88
2022/07/24 10:09:31;;;;;;;5.28;4.57;;;25.80;80.80;;;;;;5057354;28;20781;-88
2022/07/24 10:11:58;;;;;;;6.78;4.97;;;25.90;80.30;;;;;;5070342;28;20085;-88
2022/07/24 10:14:24;;;;;;;7.00;4.60;;;25.90;78.90;;;;;;5058652;28;20162;-88
2022/07/24 10:17:04;;;;;;;7.55;4.68;;;26.00;78.60;;;;;;5056486;28;20040;-88
2022/07/24 10:19:40;;;;;;;6.90;4.60;;;26.00;78.70;;;;;;5049980;28;20612;-88
2022/07/24 10:22:12;;;;;;;6.97;4.35;;;26.00;79.00;;;;;;5056372;28;20024;-88
2022/07/24 10:24:56;;;;;;;7.25;4.95;;;26.10;79.30;;;;;;5071699;28;20024;-89
2022/07/24 10:27:32;;;;;;;7.53;4.50;;;26.20;78.70;;;;;;5049661;28;20048;-89
2022/07/24 10:30:04;;;;;;;8.02;5.00;;;26.20;76.40;;;;;;5066711;28;20024;-88
2022/07/24 10:32:32;;;;;;;6.75;4.65;;;26.20;76.40;;;;;;5057251;28;20025;-89
2022/07/24 10:35:18;;;;;;;4.85;4.30;;;26.30;76.70;;;;;;5056869;28;20480;-89
2022/07/24 10:38:09;;;;;;;5.97;4.38;;;26.30;77.00;;;;;;5056081;28;20039;-90
2022/07/24 10:40:53;;;;;;;6.03;4.55;;;26.30;75.90;;;;;;5040630;28;20025;-90
2022/07/24 10:43:21;;;;;;;6.53;5.00;;;26.30;76.30;;;;;;5056926;28;20024;-88
2022/07/24 10:46:07;;;;;;;6.68;4.60;;;26.40;75.80;;;;;;5056417;28;20173;-88
2022/07/24 10:48:35;;;;;;;6.32;4.50;;;26.50;75.60;;;;;;5022754;28;20067;-88
2022/07/24 10:51:15;;;;;;;7.20;4.72;;;26.60;75.60;;;;;;5044767;28;20016;-89
2022/07/24 10:53:45;;;;;;;8.32;4.38;;;26.60;74.90;;;;;;5055874;28;20054;-89
2022/07/24 10:56:27;;;;;;;4.70;3.80;;;26.50;74.80;;;;;;5074491;28;20021;-89
2022/07/24 10:59:20;;;;;;;5.57;4.13;;;26.60;73.90;;;;;;5073265;28;20052;-89
2022/07/24 11:01:53;;;;;;;4.18;3.58;;;26.80;73.00;;;;;;5017739;28;20029;-89
2022/07/24 11:04:19;;;;;;;6.85;3.88;;;26.80;70.30;;;;;;5042967;28;20050;-88
2022/07/24 11:06:48;;;;;;;3.90;3.25;;;26.80;69.80;;;;;;5072789;28;20024;-89
2022/07/24 11:09:15;;;;;;;4.22;3.47;;;26.80;69.80;;;;;;5056178;28;20035;-89
2022/07/24 11:12:03;;;;;;;7.13;4.05;;;26.90;69.80;;;;;;5070841;28;20043;-88
2022/07/24 11:14:38;;;;;;;6.40;3.88;;;26.90;69.80;;;;;;5055497;28;20094;-90
2022/07/24 11:17:44;;;;;;;5.72;3.92;;;27.00;70.00;;;;;;5053289;28;20032;-90
2022/07/24 11:20:16;;;;;;;5.22;3.40;;;27.10;70.40;;;;;;5051953;28;20454;-89
2022/07/24 11:22:50;;;;;;;4.38;3.40;;;27.10;69.40;;;;;;5053643;28;20025;-89
2022/07/24 11:25:21;;;;;;;5.63;3.53;;;27.20;68.70;;;;;;5070859;28;20092;-89
2022/07/24 11:27:46;;;;;;;5.60;3.30;;;27.30;68.50;;;;;;5055197;28;20049;-90
2022/07/24 11:30:13;;;;;;;5.30;3.63;;;27.40;67.40;;;;;;5055367;28;20025;-89
2022/07/24 11:32:40;;;;;;;4.63;3.60;;;27.50;66.50;;;;;;5050683;28;20436;-89
2022/07/24 11:35:08;;;;;;;6.45;3.40;;;27.50;66.60;;;;;;5054920;28;20473;-89
2022/07/24 11:37:35;;;;;;;5.38;3.10;;;27.60;65.50;;;;;;5052644;28;20040;-89
2022/07/24 11:40:01;;;;;;;5.05;3.92;;;27.60;65.60;;;;;;5067160;28;20231;-89
2022/07/24 11:42:27;;;;;;;11.15;6.25;;;27.60;66.30;;;;;;5055558;28;20076;-90
2022/07/24 11:44:52;;;;;;;5.40;3.90;;;27.70;66.30;;;;;;5055035;28;20392;-88
2022/07/24 11:47:26;;;;;;;4.68;3.22;;;27.70;66.50;;;;;;5056526;28;20108;-90
2022/07/24 11:50:01;;;;;;;5.70;3.53;;;27.80;66.00;;;;;;5055526;28;20533;-89
2022/07/24 11:52:33;;;;;;;4.15;3.63;;;27.90;65.30;;;;;;5056068;28;20021;-89
2022/07/24 11:55:17;;;;;;;6.85;3.67;;;28.00;64.70;;;;;;5055824;28;20055;-89
2022/07/24 11:57:49;;;;;;;6.38;3.42;;;28.10;63.80;;;;;;5073428;28;20031;-89
2022/07/24 12:00:19;;;;;;;5.05;3.47;;;28.20;64.50;;;;;;5055973;28;20052;-89
2022/07/24 12:02:50;;;;;;;4.20;3.42;;;28.20;63.30;;;;;;5053496;28;20480;-89
2022/07/24 12:05:38;;;;;;;3.83;3.30;;;28.20;63.10;;;;;;5072720;28;20037;-89
2022/07/24 12:08:15;;;;;;;4.30;3.38;;;28.20;62.20;;;;;;5055297;28;20040;-89
2022/07/24 12:10:41;;;;;;;6.03;3.50;;;28.30;62.70;;;;;;5055223;28;20021;-90
2022/07/24 12:13:07;;;;;;;5.57;3.60;;;28.40;63.00;;;;;;5055114;28;20108;-89
2022/07/24 12:15:38;;;;;;;5.75;3.50;;;28.40;62.70;;;;;;5054813;28;20052;-88
2022/07/24 12:18:06;;;;;;;4.78;3.53;;;28.50;62.20;;;;;;5056255;28;20086;-90
2022/07/24 12:20:35;;;;;;;4.43;3.70;;;28.60;62.70;;;;;;5076845;28;20103;-89
2022/07/24 12:23:04;;;;;;;4.30;3.63;;;28.70;61.90;;;;;;5059646;28;20063;-91
2022/07/24 12:25:30;;;;;;;5.93;3.70;;;28.80;62.00;;;;;;5058997;28;20063;-90
2022/07/24 12:28:14;;;;;;;5.25;3.38;;;28.80;61.90;;;;;;5058736;28;20044;-89
2022/07/24 12:31:01;;;;;;;3.65;3.10;;;28.80;61.20;;;;;;5043495;28;20115;-88
2022/07/24 12:33:29;;;;;;;3.83;3.00;;;29.00;58.90;;;;;;5075150;28;20040;-88
2022/07/24 12:35:59;;;;;;;5.13;3.30;;;29.10;58.50;;;;;;5058451;28;20054;-88
2022/07/24 12:38:36;;;;;;;4.38;3.05;;;29.20;57.50;;;;;;5076625;28;20029;-87
2022/07/24 12:41:13;;;;;;;3.92;3.30;;;29.30;58.60;;;;;;5058825;28;20029;-88
2022/07/24 12:43:52;;;;;;;4.97;3.20;;;29.30;58.60;;;;;;5058725;28;20132;-88
2022/07/24 12:46:20;;;;;;;4.40;3.30;;;29.40;58.50;;;;;;5058848;28;20083;-88
2022/07/24 12:48:59;;;;;;;4.60;3.45;;;29.40;59.40;;;;;;5058147;28;20477;-87
2022/07/24 12:51:25;;;;;;;4.35;3.30;;;29.60;58.40;;;;;;5058881;28;20020;-87